Time;durP1;ratioP1;P1;durP2;ratioP2;P2;SDS_P1;SDS_P2;PMS_P1;PMS_P2;Temp;Humidity;BMP_temperature;BMP_pressure;BME280_temperature;BME280_humidity;BME280_pressure;Samples;Min_cycle;Max_cycle;Signal;HPM_P1;HPM_P2
2023/07/26 00:01:00;;;;;;;;;;;;;;;;;;5091495;27;19934;-68
2023/07/26 00:03:26;;;;;;;;;;;;;;;;;;5091399;28;19913;-67
2023/07/26 00:05:52;;;;;;;;;;;;;;;;;;5091473;28;20429;-67
2023/07/26 00:08:18;;;;;;;;;;;;;;;;;;5090881;28;19908;-67
2023/07/26 00:19:31;;;;;;;;;;;;;;;;;;5095481;27;2221630;-68
2023/07/26 00:25:30;;;;;;;;;;;;;;;;;;5152962;27;20294;-67
2023/07/26 00:27:56;;;;;;;;;;;;;;;;;;5153039;27;20282;-67
2023/07/26 00:30:22;;;;;;;;;;;;;;;;;;5152431;27;19994;-67
2023/07/26 00:34:27;;;;;;;;;;;;;;;;;;5078505;27;2105573;-68
2023/07/26 00:36:53;;;;;;;;;;;;;;;;;;5152544;27;19959;-68
2023/07/26 00:41:11;;;;;;;;;;;;;;;;;;5133018;27;20355;-67
2023/07/26 00:44:24;;;;;;;;;;;;;;;;;;5111501;27;20376;-67
2023/07/26 00:46:50;;;;;;;;;;;;;;;;;;5111789;28;20010;-67
2023/07/26 00:49:16;;;;;;;;;;;;;;;;;;5112127;28;20417;-68
2023/07/26 00:55:17;;;;;;;;;;;;;;;;;;5153012;27;19918;-68
2023/07/26 00:57:43;;;;;;;;;;;;;;;;;;5152524;27;20370;-68
2023/07/26 01:00:09;;;;;;;;;;;;;;;;;;5152841;27;19964;-68
2023/07/26 01:02:35;;;;;;;;;;;;;;;;;;5134539;27;19907;-68
2023/07/26 01:05:01;;;;;;;;;;;;;;;;;;5152317;27;19952;-69
2023/07/26 01:07:26;;;;;;;;;;;;;;;;;;5152721;27;19908;-68
2023/07/26 01:09:52;;;;;;;;;;;;;;;;;;5152663;27;19915;-70
2023/07/26 01:12:19;;;;;;;;;;;;;;;;;;5152243;27;19920;-68
2023/07/26 01:17:20;;;;;;;;;;;;;;;;;;5112257;27;19916;-67
2023/07/26 01:19:46;;;;;;;;;;;;;;;;;;5111373;28;19912;-68
2023/07/26 01:24:31;;;;;;;;;;;;;;;;;;5091447;27;19917;-67
2023/07/26 01:26:57;;;;;;;;;;;;;;;;;;5090963;28;20396;-67
2023/07/26 01:29:23;;;;;;;;;;;;;;;;;;5091644;28;19908;-68
2023/07/26 01:31:49;;;;;;;;;;;;;;;;;;5091136;28;19955;-69
2023/07/26 01:34:15;;;;;;;;;;;;;;;;;;5091247;28;19915;-67
2023/07/26 01:36:41;;;;;;;;;;;;;;;;;;5091176;28;19954;-68
2023/07/26 01:39:07;;;;;;;;;;;;;;;;;;5090731;28;19908;-68
2023/07/26 01:41:33;;;;;;;;;;;;;;;;;;5091092;28;19909;-68
2023/07/26 01:43:59;;;;;;;;;;;;;;;;;;5091006;28;19917;-69
2023/07/26 01:46:25;;;;;;;;;;;;;;;;;;5090900;28;19909;-68
2023/07/26 01:48:51;;;;;;;;;;;;;;;;;;5090889;28;19912;-69
2023/07/26 01:51:17;;;;;;;;;;;;;;;;;;5090934;28;19916;-69
2023/07/26 01:53:43;;;;;;;;;;;;;;;;;;5090520;28;19908;-69
2023/07/26 01:56:52;;;;;;;;;;;;;;;;;;5112064;27;20299;-67
2023/07/26 02:04:48;;;;;;;;;;;;;;;;;;5152941;27;19969;-67
2023/07/26 02:08:06;;;;;;;;;;;;;;;;;;5091466;27;19922;-67
2023/07/26 02:12:35;;;;;;;;;;;;;;;;;;5091516;28;19916;-69
2023/07/26 02:15:01;;;;;;;;;;;;;;;;;;5090993;28;20007;-67
2023/07/26 02:17:27;;;;;;;;;;;;;;;;;;5091472;28;19908;-68
2023/07/26 02:19:53;;;;;;;;;;;;;;;;;;5091330;28;19938;-68
2023/07/26 02:23:03;;;;;;;;;;;;;;;;;;5111421;27;20299;-68
2023/07/26 02:25:29;;;;;;;;;;;;;;;;;;5112349;28;20003;-68
2023/07/26 02:29:18;;;;;;;;;;;;;;;;;;5111750;27;19916;-68
2023/07/26 02:31:44;;;;;;;;;;;;;;;;;;5111747;28;20002;-67
2023/07/26 02:34:10;;;;;;;;;;;;;;;;;;5112271;28;19908;-67
2023/07/26 02:36:36;;;;;;;;;;;;;;;;;;5111284;28;19908;-67
2023/07/26 02:39:02;;;;;;;;;;;;;;;;;;5110351;28;20357;-68
2023/07/26 02:43:40;;;;;;;;;;;;;;;;;;5111657;27;19923;-69
2023/07/26 02:46:06;;;;;;;;;;;;;;;;;;5111865;28;19912;-68
2023/07/26 02:48:32;;;;;;;;;;;;;;;;;;5111733;28;19953;-68
2023/07/26 02:50:58;;;;;;;;;;;;;;;;;;5111144;28;19916;-68
2023/07/26 02:53:24;;;;;;;;;;;;;;;;;;5111666;28;19912;-68
2023/07/26 02:55:50;;;;;;;;;;;;;;;;;;5110317;28;20352;-68
2023/07/26 02:58:16;;;;;;;;;;;;;;;;;;5109912;28;19916;-68
2023/07/26 03:00:42;;;;;;;;;;;;;;;;;;5111482;28;19994;-68
2023/07/26 03:05:40;;;;;;;;;;;;;;;;;;5091441;27;19923;-68
2023/07/26 03:08:06;;;;;;;;;;;;;;;;;;5091567;28;19912;-68
2023/07/26 03:10:32;;;;;;;;;;;;;;;;;;5091038;28;19969;-68
2023/07/26 03:14:19;;;;;;;;;;;;;;;;;;5091977;28;19916;-68
2023/07/26 03:16:56;;;;;;;;;;;;;;;;;;5111900;27;19923;-68
2023/07/26 03:19:22;;;;;;;;;;;;;;;;;;5111474;28;20351;-68
2023/07/26 03:21:48;;;;;;;;;;;;;;;;;;5111732;28;19912;-68
2023/07/26 03:24:14;;;;;;;;;;;;;;;;;;5111653;28;20003;-67
2023/07/26 03:26:40;;;;;;;;;;;;;;;;;;5111202;28;19908;-68
2023/07/26 03:29:06;;;;;;;;;;;;;;;;;;5111516;28;19919;-68
2023/07/26 03:31:32;;;;;;;;;;;;;;;;;;5111179;28;20364;-68
2023/07/26 03:40:24;;;;;;;;;;;;;;;;;;5132355;27;19998;-67
2023/07/26 03:42:50;;;;;;;;;;;;;;;;;;5113870;28;20408;-67
2023/07/26 03:47:44;;;;;;;;;;;;;;;;;;5091041;27;19923;-68
2023/07/26 03:50:10;;;;;;;;;;;;;;;;;;5091624;28;19912;-68
2023/07/26 03:52:36;;;;;;;;;;;;;;;;;;5091185;28;19908;-68
2023/07/26 03:57:23;;;;;;;;;;;;;;;;;;5091713;27;20295;-67
2023/07/26 03:59:48;;;;;;;;;;;;;;;;;;5091280;28;20039;-68
2023/07/26 04:02:14;;;;;;;;;;;;;;;;;;5091691;28;20261;-67
2023/07/26 04:09:16;;;;;;;;;;;;;;;;;;5112059;27;19916;-68
2023/07/26 04:11:42;;;;;;;;;;;;;;;;;;5111730;28;19912;-67
2023/07/26 04:14:08;;;;;;;;;;;;;;;;;;5111333;28;20291;-67
2023/07/26 04:16:34;;;;;;;;;;;;;;;;;;5111678;28;20357;-67
2023/07/26 04:19:00;;;;;;;;;;;;;;;;;;5111643;28;20269;-67
2023/07/26 04:21:26;;;;;;;;;;;;;;;;;;5111217;28;20261;-67
2023/07/26 04:23:52;;;;;;;;;;;;;;;;;;5111770;28;20372;-68
2023/07/26 04:26:19;;;;;;;;;;;;;;;;;;5111483;28;20383;-67
2023/07/26 04:28:45;;;;;;;;;;;;;;;;;;5110996;28;19966;-69
2023/07/26 04:31:11;;;;;;;;;;;;;;;;;;5111371;28;20279;-68
2023/07/26 04:35:03;;;;;;;;;;;;;;;;;;5091657;27;19923;-67
2023/07/26 04:37:29;;;;;;;;;;;;;;;;;;5091420;28;19999;-67
2023/07/26 04:39:55;;;;;;;;;;;;;;;;;;5091354;28;19954;-67
2023/07/26 04:42:21;;;;;;;;;;;;;;;;;;5090902;28;19908;-67
2023/07/26 04:44:47;;;;;;;;;;;;;;;;;;5089991;28;19909;-68
2023/07/26 04:49:49;;;;;;;;;;;;;;;;;;5091487;27;19916;-67
2023/07/26 04:52:15;;;;;;;;;;;;;;;;;;5090095;28;20011;-67
2023/07/26 04:54:41;;;;;;;;;;;;;;;;;;5091308;28;20279;-67
2023/07/26 04:59:31;;;;;;;;;;;;;;;;;;5153331;27;20006;-67
2023/07/26 05:02:32;;;;;;;;;;;;;;;;;;5111772;27;19922;-67
2023/07/26 05:04:58;;;;;;;;;;;;;;;;;;5111386;28;19965;-67
2023/07/26 05:08:29;;;;;;;;;;;;;;;;;;5112287;27;19916;-67
2023/07/26 05:13:29;;;;;;;;;;;;;;;;;;5112616;27;19916;-67
2023/07/26 05:15:55;;;;;;;;;;;;;;;;;;5111819;28;20014;-67
2023/07/26 05:18:21;;;;;;;;;;;;;;;;;;5111719;28;19960;-67
2023/07/26 05:20:47;;;;;;;;;;;;;;;;;;5110336;28;19908;-67
2023/07/26 05:24:42;;;;;;;;;;;;;;;;;;5152671;27;20442;-67
2023/07/26 05:27:08;;;;;;;;;;;;;;;;;;5152950;27;19957;-67
2023/07/26 05:29:34;;;;;;;;;;;;;;;;;;5144855;27;20317;-67
2023/07/26 05:32:00;;;;;;;;;;;;;;;;;;5111901;28;20397;-67
2023/07/26 05:34:26;;;;;;;;;;;;;;;;;;5132107;28;19908;-67
2023/07/26 05:39:12;;;;;;;;;;;;;;;;;;5111325;27;19912;-67
2023/07/26 05:43:14;;;;;;;;;;;;;;;;;;5111833;27;19922;-68
2023/07/26 05:48:10;;;;;;;;;;;;;;;;;;5153365;27;19911;-68
2023/07/26 05:50:47;;;;;;;;;;;;;;;;;;5110721;27;19916;-67
2023/07/26 05:53:13;;;;;;;;;;;;;;;;;;5109471;28;20093;-67
2023/07/26 05:55:39;;;;;;;;;;;;;;;;;;5110751;28;19955;-67
2023/07/26 05:58:05;;;;;;;;;;;;;;;;;;5111199;28;20368;-67
2023/07/26 06:00:31;;;;;;;;;;;;;;;;;;5110646;28;20356;-67
2023/07/26 06:03:54;;;;;;;;;;;;;;;;;;5152816;27;19994;-67
2023/07/26 06:09:05;;;;;;;;;;;;;;;;;;5153275;27;20005;-67
2023/07/26 06:11:31;;;;;;;;;;;;;;;;;;5152786;27;20002;-67
2023/07/26 06:13:57;;;;;;;;;;;;;;;;;;5152348;27;19914;-67
2023/07/26 06:16:23;;;;;;;;;;;;;;;;;;5152803;27;20002;-67
2023/07/26 06:21:19;;;;;;;;;;;;;;;;;;5031811;28;19918;-67
2023/07/26 06:23:45;;;;;;;;;;;;;;;;;;5030017;28;19914;-67
2023/07/26 06:26:11;;;;;;;;;;;;;;;;;;5031215;28;19953;-68
2023/07/26 06:33:01;;;;;;;;;;;;;;;;;;5153377;27;19917;-68
2023/07/26 06:35:27;;;;;;;;;;;;;;;;;;5152484;27;19912;-68
2023/07/26 06:37:53;;;;;;;;;;;;;;;;;;5152053;27;19938;-68
2023/07/26 06:40:19;;;;;;;;;;;;;;;;;;5132702;27;19960;-68
2023/07/26 06:42:45;;;;;;;;;;;;;;;;;;5151794;27;19911;-68
2023/07/26 06:45:10;;;;;;;;;;;;;;;;;;5152429;27;19911;-68
2023/07/26 06:49:43;;;;;;;;;;;;;;;;;;5152286;27;19998;-67
2023/07/26 06:52:09;;;;;;;;;;;;;;;;;;5152541;27;20350;-68
2023/07/26 06:54:35;;;;;;;;;;;;;;;;;;5152712;27;19913;-67
2023/07/26 06:57:01;;;;;;;;;;;;;;;;;;5133924;27;19933;-67
2023/07/26 06:59:27;;;;;;;;;;;;;;;;;;5152740;27;19951;-67
2023/07/26 07:03:05;;;;;;;;;;;;;;;;;;5152822;27;20447;-67
2023/07/26 07:05:31;;;;;;;;;;;;;;;;;;5134348;27;19918;-68
2023/07/26 07:07:57;;;;;;;;;;;;;;;;;;5134296;27;19908;-67
2023/07/26 07:10:23;;;;;;;;;;;;;;;;;;5152337;27;19908;-68
2023/07/26 07:12:49;;;;;;;;;;;;;;;;;;5152736;27;19930;-67
2023/07/26 07:15:15;;;;;;;;;;;;;;;;;;5152757;27;19911;-68
2023/07/26 07:17:41;;;;;;;;;;;;;;;;;;5152124;27;19935;-68
2023/07/26 07:20:09;;;;;;;;;;;;;;;;;;5152537;27;19914;-68
2023/07/26 07:23:23;;;;;;;;;;;;;;;;;;5153394;27;19911;-67
2023/07/26 07:25:50;;;;;;;;;;;;;;;;;;5151053;27;20051;-66
2023/07/26 07:28:16;;;;;;;;;;;;;;;;;;5143176;27;19960;-68
2023/07/26 07:30:42;;;;;;;;;;;;;;;;;;5132390;27;19907;-67
2023/07/26 07:33:08;;;;;;;;;;;;;;;;;;5150972;27;19907;-68
2023/07/26 07:35:34;;;;;;;;;;;;;;;;;;5150846;27;19913;-66
2023/07/26 07:38:00;;;;;;;;;;;;;;;;;;5152175;27;19911;-67
2023/07/26 07:40:26;;;;;;;;;;;;;;;;;;5134102;27;19908;-67
2023/07/26 07:42:52;;;;;;;;;;;;;;;;;;5151898;27;19923;-68
2023/07/26 07:45:18;;;;;;;;;;;;;;;;;;5150753;27;19907;-69
2023/07/26 07:47:44;;;;;;;;;;;;;;;;;;5150231;27;19911;-68
2023/07/26 07:50:10;;;;;;;;;;;;;;;;;;5150059;27;19957;-68
2023/07/26 07:52:36;;;;;;;;;;;;;;;;;;5150873;27;19914;-68
2023/07/26 07:55:02;;;;;;;;;;;;;;;;;;5151606;27;19907;-69
2023/07/26 07:57:28;;;;;;;;;;;;;;;;;;5150726;27;20007;-68
2023/07/26 07:59:54;;;;;;;;;;;;;;;;;;5149851;27;20294;-68
2023/07/26 08:02:19;;;;;;;;;;;;;;;;;;5150670;27;19955;-69
2023/07/26 08:04:45;;;;;;;;;;;;;;;;;;5151090;27;20335;-69
2023/07/26 08:07:11;;;;;;;;;;;;;;;;;;5150390;27;19911;-69
2023/07/26 08:09:37;;;;;;;;;;;;;;;;;;5151063;27;20397;-69
2023/07/26 08:12:03;;;;;;;;;;;;;;;;;;5151627;27;19914;-69
2023/07/26 08:14:29;;;;;;;;;;;;;;;;;;5151185;27;19914;-69
2023/07/26 08:16:55;;;;;;;;;;;;;;;;;;5150977;27;19913;-69
2023/07/26 08:19:21;;;;;;;;;;;;;;;;;;5132237;27;19915;-69
2023/07/26 08:21:47;;;;;;;;;;;;;;;;;;5149903;27;19919;-68
2023/07/26 08:24:13;;;;;;;;;;;;;;;;;;5150606;27;19915;-68
2023/07/26 08:26:39;;;;;;;;;;;;;;;;;;5150535;27;20009;-68
2023/07/26 08:29:05;;;;;;;;;;;;;;;;;;5150877;27;20318;-69
2023/07/26 08:31:31;;;;;;;;;;;;;;;;;;5151568;27;19911;-69
2023/07/26 08:33:57;;;;;;;;;;;;;;;;;;5139273;27;19942;-69
2023/07/26 08:36:23;;;;;;;;;;;;;;;;;;5136833;27;19907;-69
2023/07/26 08:38:49;;;;;;;;;;;;;;;;;;5136880;27;19952;-68
2023/07/26 08:41:15;;;;;;;;;;;;;;;;;;5135173;27;19919;-68
2023/07/26 08:43:41;;;;;;;;;;;;;;;;;;5135893;27;20437;-68
2023/07/26 08:46:07;;;;;;;;;;;;;;;;;;5135473;27;19915;-69
2023/07/26 08:48:33;;;;;;;;;;;;;;;;;;5135177;27;19911;-69
2023/07/26 08:50:59;;;;;;;;;;;;;;;;;;5136501;27;20351;-68
2023/07/26 08:53:25;;;;;;;;;;;;;;;;;;5136331;27;19907;-68
2023/07/26 08:55:51;;;;;;;;;;;;;;;;;;5118167;27;19912;-68
2023/07/26 08:58:17;;;;;;;;;;;;;;;;;;5137382;27;20002;-68
2023/07/26 09:00:43;;;;;;;;;;;;;;;;;;5117646;27;19912;-68
2023/07/26 09:03:10;;;;;;;;;;;;;;;;;;5137023;27;19955;-68
2023/07/26 09:05:37;;;;;;;;;;;;;;;;;;5137258;27;19907;-68
2023/07/26 09:08:03;;;;;;;;;;;;;;;;;;5135155;27;20264;-69
2023/07/26 09:10:29;;;;;;;;;;;;;;;;;;5134710;27;20013;-68
2023/07/26 09:12:55;;;;;;;;;;;;;;;;;;5134927;27;19973;-68
2023/07/26 09:15:21;;;;;;;;;;;;;;;;;;5120724;27;19912;-67
2023/07/26 09:17:47;;;;;;;;;;;;;;;;;;5108449;27;20378;-66
2023/07/26 09:20:13;;;;;;;;;;;;;;;;;;5116242;27;19907;-69
2023/07/26 09:22:40;;;;;;;;;;;;;;;;;;5135407;27;19964;-68
2023/07/26 09:25:07;;;;;;;;;;;;;;;;;;5136321;27;19937;-69
2023/07/26 09:27:35;;;;;;;;;;;;;;;;;;5136106;27;20400;-67
2023/07/26 09:30:01;;;;;;;;;;;;;;;;;;5136177;27;19912;-67
2023/07/26 09:32:28;;;;;;;;;;;;;;;;;;5135979;27;19907;-68
2023/07/26 09:34:54;;;;;;;;;;;;;;;;;;5136271;27;19907;-68
2023/07/26 09:37:22;;;;;;;;;;;;;;;;;;5135083;27;19908;-68
2023/07/26 09:39:48;;;;;;;;;;;;;;;;;;5135857;27;19919;-68
2023/07/26 09:42:14;;;;;;;;;;;;;;;;;;5135732;27;19915;-68
2023/07/26 09:44:40;;;;;;;;;;;;;;;;;;5134343;27;20002;-68
2023/07/26 09:47:06;;;;;;;;;;;;;;;;;;5135943;27;19960;-68
2023/07/26 09:49:32;;;;;;;;;;;;;;;;;;5135417;27;19915;-68
2023/07/26 09:51:58;;;;;;;;;;;;;;;;;;5135496;27;19935;-68
2023/07/26 09:54:24;;;;;;;;;;;;;;;;;;5135592;27;19957;-68
2023/07/26 09:56:50;;;;;;;;;;;;;;;;;;5134732;27;19907;-68
2023/07/26 09:59:16;;;;;;;;;;;;;;;;;;5135488;27;19908;-67
2023/07/26 10:01:42;;;;;;;;;;;;;;;;;;5135505;27;20019;-68
2023/07/26 10:04:08;;;;;;;;;;;;;;;;;;5135404;27;20371;-68
2023/07/26 10:06:35;;;;;;;;;;;;;;;;;;5135438;27;19914;-68
2023/07/26 10:09:00;;;;;;;;;;;;;;;;;;5136222;27;19914;-69
2023/07/26 10:11:26;;;;;;;;;;;;;;;;;;5136053;27;19912;-69
2023/07/26 10:13:53;;;;;;;;;;;;;;;;;;5135381;27;19907;-68
2023/07/26 10:16:19;;;;;;;;;;;;;;;;;;5117511;27;19914;-69
2023/07/26 10:18:45;;;;;;;;;;;;;;;;;;5134761;27;20001;-69
2023/07/26 10:21:11;;;;;;;;;;;;;;;;;;5134516;27;19976;-68
2023/07/26 10:23:37;;;;;;;;;;;;;;;;;;5135355;27;19911;-69
2023/07/26 10:26:07;;;;;;;;;;;;;;;;;;5135495;27;19908;-68
2023/07/26 10:28:33;;;;;;;;;;;;;;;;;;5135179;27;19907;-70
2023/07/26 10:30:59;;;;;;;;;;;;;;;;;;5135463;27;19914;-69
2023/07/26 10:33:26;;;;;;;;;;;;;;;;;;5135367;27;19908;-68
2023/07/26 10:35:52;;;;;;;;;;;;;;;;;;5134628;27;20371;-69
2023/07/26 10:38:19;;;;;;;;;;;;;;;;;;5134455;27;19950;-68
2023/07/26 10:40:45;;;;;;;;;;;;;;;;;;5133801;27;19911;-69
2023/07/26 10:43:11;;;;;;;;;;;;;;;;;;5115134;27;20022;-68
2023/07/26 10:45:36;;;;;;;;;;;;;;;;;;5134147;27;19911;-68
2023/07/26 10:48:02;;;;;;;;;;;;;;;;;;5133712;27;20033;-68
2023/07/26 10:50:28;;;;;;;;;;;;;;;;;;5134462;27;19907;-68
2023/07/26 10:52:54;;;;;;;;;;;;;;;;;;5134900;27;19915;-69
2023/07/26 10:55:22;;;;;;;;;;;;;;;;;;5115020;27;19943;-69
2023/07/26 10:57:48;;;;;;;;;;;;;;;;;;5134374;27;19912;-69
2023/07/26 11:00:18;;;;;;;;;;;;;;;;;;5134981;27;20002;-67
2023/07/26 11:02:44;;;;;;;;;;;;;;;;;;5134638;27;19941;-67
2023/07/26 11:05:10;;;;;;;;;;;;;;;;;;5134761;27;20303;-67
2023/07/26 11:07:36;;;;;;;;;;;;;;;;;;5133339;27;19907;-68
2023/07/26 11:10:02;;;;;;;;;;;;;;;;;;5132888;27;20288;-68
2023/07/26 11:12:28;;;;;;;;;;;;;;;;;;5133733;27;20356;-68
2023/07/26 11:14:53;;;;;;;;;;;;;;;;;;5133866;27;20287;-68
2023/07/26 11:17:19;;;;;;;;;;;;;;;;;;5133216;27;19931;-67
2023/07/26 11:19:46;;;;;;;;;;;;;;;;;;5134700;28;19971;-68
2023/07/26 11:22:12;;;;;;;;;;;;;;;;;;5134110;28;20022;-69
2023/07/26 11:24:38;;;;;;;;;;;;;;;;;;5115649;28;20002;-69
2023/07/26 11:27:05;;;;;;;;;;;;;;;;;;5134361;28;19915;-68
2023/07/26 11:29:31;;;;;;;;;;;;;;;;;;5134361;28;19908;-68
2023/07/26 11:31:57;;;;;;;;;;;;;;;;;;5115543;28;19930;-68
2023/07/26 11:34:23;;;;;;;;;;;;;;;;;;5134243;28;20365;-69
2023/07/26 11:36:49;;;;;;;;;;;;;;;;;;5133959;28;19915;-69
2023/07/26 11:39:14;;;;;;;;;;;;;;;;;;5134139;28;19903;-69
2023/07/26 11:41:40;;;;;;;;;;;;;;;;;;5134604;28;20272;-69
2023/07/26 11:44:06;;;;;;;;;;;;;;;;;;5134176;28;19909;-68
2023/07/26 11:46:32;;;;;;;;;;;;;;;;;;5134522;28;19976;-68
2023/07/26 11:48:58;;;;;;;;;;;;;;;;;;5134485;28;19908;-68
2023/07/26 11:51:24;;;;;;;;;;;;;;;;;;5115775;28;19952;-68
2023/07/26 11:53:50;;;;;;;;;;;;;;;;;;5116105;28;19939;-68
2023/07/26 11:56:16;;;;;;;;;;;;;;;;;;5133735;28;19908;-69
2023/07/26 11:58:43;;;;;;;;;;;;;;;;;;5133853;28;19914;-68
2023/07/26 12:01:09;;;;;;;;;;;;;;;;;;5134278;28;20006;-68
2023/07/26 12:03:35;;;;;;;;;;;;;;;;;;5134417;28;19996;-68
2023/07/26 12:06:01;;;;;;;;;;;;;;;;;;5116335;28;19918;-69
2023/07/26 12:08:27;;;;;;;;;;;;;;;;;;5136001;27;19990;-68
2023/07/26 12:10:53;;;;;;;;;;;;;;;;;;5138275;27;20393;-69
2023/07/26 12:13:19;;;;;;;;;;;;;;;;;;5137835;27;19929;-69
2023/07/26 12:15:45;;;;;;;;;;;;;;;;;;5138401;27;19908;-68
2023/07/26 12:18:11;;;;;;;;;;;;;;;;;;5138135;27;19998;-68
2023/07/26 12:20:37;;;;;;;;;;;;;;;;;;5137739;27;19944;-68
2023/07/26 12:23:03;;;;;;;;;;;;;;;;;;5137841;27;19923;-68
2023/07/26 12:25:29;;;;;;;;;;;;;;;;;;5138049;27;19998;-68
2023/07/26 12:27:56;;;;;;;;;;;;;;;;;;5137659;27;19908;-68
2023/07/26 12:30:22;;;;;;;;;;;;;;;;;;5137865;27;20026;-69
2023/07/26 12:32:48;;;;;;;;;;;;;;;;;;5119073;27;19946;-68
2023/07/26 12:35:13;;;;;;;;;;;;;;;;;;5137395;27;19915;-69
2023/07/26 12:37:39;;;;;;;;;;;;;;;;;;5137686;27;19911;-69
2023/07/26 12:40:07;;;;;;;;;;;;;;;;;;5137376;27;20264;-67
2023/07/26 12:42:33;;;;;;;;;;;;;;;;;;5137534;27;19915;-68
2023/07/26 12:45:00;;;;;;;;;;;;;;;;;;5137722;27;19908;-68
2023/07/26 12:47:26;;;;;;;;;;;;;;;;;;5118986;27;20271;-67
2023/07/26 12:49:52;;;;;;;;;;;;;;;;;;5137406;27;20010;-70
2023/07/26 12:52:18;;;;;;;;;;;;;;;;;;5137537;27;19908;-69
2023/07/26 12:54:44;;;;;;;;;;;;;;;;;;5137147;27;19907;-68
2023/07/26 12:57:10;;;;;;;;;;;;;;;;;;5137447;27;19908;-69
2023/07/26 12:59:36;;;;;;;;;;;;;;;;;;5137284;27;19951;-67
2023/07/26 13:02:02;;;;;;;;;;;;;;;;;;5136924;27;19974;-68
2023/07/26 13:04:27;;;;;;;;;;;;;;;;;;5137251;27;19915;-69
2023/07/26 13:06:53;;;;;;;;;;;;;;;;;;5137275;27;19915;-69
2023/07/26 13:09:19;;;;;;;;;;;;;;;;;;5136853;27;19930;-68
2023/07/26 13:11:45;;;;;;;;;;;;;;;;;;5137622;27;20363;-68
2023/07/26 13:14:11;;;;;;;;;;;;;;;;;;5137021;27;20005;-68
2023/07/26 13:16:37;;;;;;;;;;;;;;;;;;5136656;27;19907;-67
2023/07/26 13:19:04;;;;;;;;;;;;;;;;;;5136891;27;19956;-68
2023/07/26 13:21:30;;;;;;;;;;;;;;;;;;5136675;27;19919;-69
2023/07/26 13:23:56;;;;;;;;;;;;;;;;;;5136568;27;19915;-69
2023/07/26 13:26:22;;;;;;;;;;;;;;;;;;5136896;27;19953;-68
2023/07/26 13:28:48;;;;;;;;;;;;;;;;;;5136807;27;19915;-69
2023/07/26 13:31:14;;;;;;;;;;;;;;;;;;5136410;27;19907;-69
2023/07/26 13:33:40;;;;;;;;;;;;;;;;;;5136747;27;19938;-69
2023/07/26 13:36:06;;;;;;;;;;;;;;;;;;5136742;27;19994;-69
2023/07/26 13:38:32;;;;;;;;;;;;;;;;;;5136250;27;19934;-69
2023/07/26 13:40:58;;;;;;;;;;;;;;;;;;5136429;27;20295;-69
2023/07/26 13:43:24;;;;;;;;;;;;;;;;;;5136283;27;20002;-69
2023/07/26 13:45:50;;;;;;;;;;;;;;;;;;5136413;27;19946;-68
2023/07/26 13:48:15;;;;;;;;;;;;;;;;;;5136374;27;19907;-69
2023/07/26 13:50:41;;;;;;;;;;;;;;;;;;5136015;27;19912;-68
2023/07/26 13:53:07;;;;;;;;;;;;;;;;;;5136313;27;20006;-69
2023/07/26 13:55:33;;;;;;;;;;;;;;;;;;5136226;27;19908;-68
2023/07/26 13:57:59;;;;;;;;;;;;;;;;;;5117498;27;19907;-70
2023/07/26 14:00:25;;;;;;;;;;;;;;;;;;5136303;27;19914;-69
2023/07/26 14:02:51;;;;;;;;;;;;;;;;;;5136054;27;19969;-70
2023/07/26 14:05:17;;;;;;;;;;;;;;;;;;5135724;27;19907;-68
2023/07/26 14:07:43;;;;;;;;;;;;;;;;;;5136056;27;19914;-69
2023/07/26 14:10:09;;;;;;;;;;;;;;;;;;5135941;27;19907;-69
2023/07/26 14:12:35;;;;;;;;;;;;;;;;;;5135519;27;19911;-67
2023/07/26 14:15:01;;;;;;;;;;;;;;;;;;5135814;27;19917;-69
2023/07/26 14:17:27;;;;;;;;;;;;;;;;;;5135880;27;19908;-69
2023/07/26 14:19:53;;;;;;;;;;;;;;;;;;5135644;27;19907;-69
2023/07/26 14:22:19;;;;;;;;;;;;;;;;;;5135516;27;20268;-69
2023/07/26 14:24:45;;;;;;;;;;;;;;;;;;5135823;27;20332;-67
2023/07/26 14:27:11;;;;;;;;;;;;;;;;;;5135277;27;20455;-69
2023/07/26 14:29:37;;;;;;;;;;;;;;;;;;5135726;27;20394;-69
2023/07/26 14:32:03;;;;;;;;;;;;;;;;;;5135227;27;20402;-68
2023/07/26 14:34:29;;;;;;;;;;;;;;;;;;5135171;27;19914;-68
2023/07/26 14:36:54;;;;;;;;;;;;;;;;;;5135414;27;19908;-67
2023/07/26 14:39:20;;;;;;;;;;;;;;;;;;5135431;27;20002;-67
2023/07/26 14:41:46;;;;;;;;;;;;;;;;;;5134850;27;19911;-68
2023/07/26 14:44:12;;;;;;;;;;;;;;;;;;5135262;27;19907;-67
2023/07/26 14:46:38;;;;;;;;;;;;;;;;;;5134945;27;19947;-68
2023/07/26 14:49:04;;;;;;;;;;;;;;;;;;5135325;27;19954;-68
2023/07/26 14:51:30;;;;;;;;;;;;;;;;;;5135238;27;19912;-68
2023/07/26 14:53:56;;;;;;;;;;;;;;;;;;5134713;27;19908;-70
2023/07/26 14:56:22;;;;;;;;;;;;;;;;;;5135307;27;20325;-69
2023/07/26 14:58:48;;;;;;;;;;;;;;;;;;5134966;27;19950;-69
2023/07/26 15:01:15;;;;;;;;;;;;;;;;;;5134714;27;19923;-69
2023/07/26 15:03:41;;;;;;;;;;;;;;;;;;5135070;27;19919;-69
2023/07/26 15:06:07;;;;;;;;;;;;;;;;;;5135014;27;19908;-70
2023/07/26 15:08:33;;;;;;;;;;;;;;;;;;5134592;27;19907;-68
2023/07/26 15:10:59;;;;;;;;;;;;;;;;;;5134973;27;20053;-69
2023/07/26 15:13:25;;;;;;;;;;;;;;;;;;5116469;27;19907;-69
2023/07/26 15:15:51;;;;;;;;;;;;;;;;;;5134526;27;19918;-69
2023/07/26 15:18:17;;;;;;;;;;;;;;;;;;5134887;27;19907;-68
2023/07/26 15:20:43;;;;;;;;;;;;;;;;;;5134668;27;19908;-68
2023/07/26 15:23:09;;;;;;;;;;;;;;;;;;5134357;28;20363;-68
2023/07/26 15:25:35;;;;;;;;;;;;;;;;;;5116320;28;19968;-68
2023/07/26 15:28:01;;;;;;;;;;;;;;;;;;5134708;28;20002;-68
2023/07/26 15:30:28;;;;;;;;;;;;;;;;;;5134357;28;19907;-69
2023/07/26 15:32:54;;;;;;;;;;;;;;;;;;5134654;28;19913;-68
2023/07/26 15:35:20;;;;;;;;;;;;;;;;;;5134651;28;19908;-70
2023/07/26 15:37:46;;;;;;;;;;;;;;;;;;5134316;28;19998;-68
2023/07/26 15:40:12;;;;;;;;;;;;;;;;;;5116209;28;19931;-68
2023/07/26 15:42:38;;;;;;;;;;;;;;;;;;5134889;27;19915;-68
2023/07/26 15:45:04;;;;;;;;;;;;;;;;;;5138360;27;19915;-68
2023/07/26 15:47:30;;;;;;;;;;;;;;;;;;5138753;27;19915;-69
2023/07/26 15:49:56;;;;;;;;;;;;;;;;;;5138284;27;19960;-68
2023/07/26 15:52:22;;;;;;;;;;;;;;;;;;5120280;27;19908;-68
2023/07/26 15:54:48;;;;;;;;;;;;;;;;;;5138599;27;20328;-68
2023/07/26 15:57:14;;;;;;;;;;;;;;;;;;5119800;27;19935;-68
2023/07/26 15:59:40;;;;;;;;;;;;;;;;;;5138455;27;19911;-69
2023/07/26 16:02:06;;;;;;;;;;;;;;;;;;5138589;27;19915;-69
2023/07/26 16:04:32;;;;;;;;;;;;;;;;;;5137964;27;19908;-68
2023/07/26 16:06:58;;;;;;;;;;;;;;;;;;5138370;27;20007;-68
2023/07/26 16:09:24;;;;;;;;;;;;;;;;;;5119854;27;19908;-68
2023/07/26 16:11:50;;;;;;;;;;;;;;;;;;5137863;27;19914;-68
2023/07/26 16:14:16;;;;;;;;;;;;;;;;;;5138281;27;19907;-68
2023/07/26 16:16:42;;;;;;;;;;;;;;;;;;5138515;27;19919;-68
2023/07/26 16:19:08;;;;;;;;;;;;;;;;;;5137845;27;19998;-69
2023/07/26 16:21:34;;;;;;;;;;;;;;;;;;5119399;27;20064;-69
2023/07/26 16:24:00;;;;;;;;;;;;;;;;;;5137965;27;19908;-68
2023/07/26 16:26:26;;;;;;;;;;;;;;;;;;5137674;27;19908;-68
2023/07/26 16:28:52;;;;;;;;;;;;;;;;;;5119533;27;19914;-68
2023/07/26 16:31:18;;;;;;;;;;;;;;;;;;5138177;27;19911;-68
2023/07/26 16:33:44;;;;;;;;;;;;;;;;;;5137455;27;19908;-69
2023/07/26 16:36:10;;;;;;;;;;;;;;;;;;5137818;27;19929;-69
2023/07/26 16:38:36;;;;;;;;;;;;;;;;;;5137922;27;19908;-69
2023/07/26 16:41:02;;;;;;;;;;;;;;;;;;5137223;27;20347;-68
2023/07/26 16:43:28;;;;;;;;;;;;;;;;;;5137565;27;20404;-69
2023/07/26 16:45:54;;;;;;;;;;;;;;;;;;5119173;27;19908;-68
2023/07/26 16:48:20;;;;;;;;;;;;;;;;;;5137192;27;19907;-68
2023/07/26 16:50:46;;;;;;;;;;;;;;;;;;5119065;27;19907;-69
2023/07/26 16:53:11;;;;;;;;;;;;;;;;;;5136955;27;20409;-69
2023/07/26 16:55:37;;;;;;;;;;;;;;;;;;5136976;27;19917;-68
2023/07/26 16:58:03;;;;;;;;;;;;;;;;;;5137335;27;19914;-68
2023/07/26 17:00:29;;;;;;;;;;;;;;;;;;5136978;27;19914;-68
2023/07/26 17:02:55;;;;;;;;;;;;;;;;;;5137225;27;19922;-69
2023/07/26 17:05:21;;;;;;;;;;;;;;;;;;5137218;27;19937;-69
2023/07/26 17:07:47;;;;;;;;;;;;;;;;;;5136835;27;19913;-68
2023/07/26 17:10:13;;;;;;;;;;;;;;;;;;5137645;27;19952;-68
2023/07/26 17:12:39;;;;;;;;;;;;;;;;;;5137084;27;19908;-69
2023/07/26 17:15:05;;;;;;;;;;;;;;;;;;5136701;27;19907;-67
2023/07/26 17:17:31;;;;;;;;;;;;;;;;;;5136991;27;19980;-69
2023/07/26 17:19:57;;;;;;;;;;;;;;;;;;5136936;27;20010;-67
2023/07/26 17:22:23;;;;;;;;;;;;;;;;;;5136362;27;19919;-67
2023/07/26 17:24:49;;;;;;;;;;;;;;;;;;5118510;27;19963;-68
2023/07/26 17:27:15;;;;;;;;;;;;;;;;;;5136813;27;19935;-68
2023/07/26 17:29:41;;;;;;;;;;;;;;;;;;5136401;27;19908;-69
2023/07/26 17:32:07;;;;;;;;;;;;;;;;;;5136687;27;19908;-68
2023/07/26 17:34:34;;;;;;;;;;;;;;;;;;5136606;27;19987;-70
2023/07/26 17:37:00;;;;;;;;;;;;;;;;;;5117731;27;20272;-69
2023/07/26 17:39:25;;;;;;;;;;;;;;;;;;5118052;27;19980;-70
2023/07/26 17:41:51;;;;;;;;;;;;;;;;;;5136452;27;19935;-68
2023/07/26 17:44:17;;;;;;;;;;;;;;;;;;5136145;27;20378;-68
2023/07/26 17:46:43;;;;;;;;;;;;;;;;;;5136426;27;19907;-69
2023/07/26 17:49:09;;;;;;;;;;;;;;;;;;5136332;27;20385;-69
2023/07/26 17:51:36;;;;;;;;;;;;;;;;;;5135923;27;20389;-68
2023/07/26 17:54:02;;;;;;;;;;;;;;;;;;5117825;27;19916;-68
2023/07/26 17:56:27;;;;;;;;;;;;;;;;;;5117302;27;19956;-68
2023/07/26 17:58:53;;;;;;;;;;;;;;;;;;5136189;27;19961;-68
2023/07/26 18:01:19;;;;;;;;;;;;;;;;;;5136115;27;19918;-68
2023/07/26 18:03:45;;;;;;;;;;;;;;;;;;5136208;27;20279;-68
2023/07/26 18:06:12;;;;;;;;;;;;;;;;;;5135184;27;20283;-68
2023/07/26 18:08:38;;;;;;;;;;;;;;;;;;5135994;27;19914;-68